sensor_id;sensor_type;location;lat;lon;timestamp;temperature;humidity
42141;DHT22;27809;51.864;5.646;2024-02-04T00:00:09;11.00;99.90
42141;DHT22;27809;51.864;5.646;2024-02-04T00:02:36;11.00;99.90
42141;DHT22;27809;51.864;5.646;2024-02-04T00:05:03;11.00;99.90
42141;DHT22;27809;51.864;5.646;2024-02-04T00:07:29;11.00;99.90
42141;DHT22;27809;51.864;5.646;2024-02-04T00:09:54;11.00;99.90
42141;DHT22;27809;51.864;5.646;2024-02-04T00:12:20;11.10;99.90
42141;DHT22;27809;51.864;5.646;2024-02-04T00:14:47;11.10;99.90
42141;DHT22;27809;51.864;5.646;2024-02-04T00:17:18;11.10;99.90
42141;DHT22;27809;51.864;5.646;2024-02-04T00:19:43;11.00;99.90
42141;DHT22;27809;51.864;5.646;2024-02-04T00:22:09;11.00;99.90
42141;DHT22;27809;51.864;5.646;2024-02-04T00:24:35;11.00;99.90
42141;DHT22;27809;51.864;5.646;2024-02-04T00:27:00;11.00;99.90
42141;DHT22;27809;51.864;5.646;2024-02-04T00:29:26;11.00;99.90
42141;DHT22;27809;51.864;5.646;2024-02-04T00:31:51;11.00;99.90
42141;DHT22;27809;51.864;5.646;2024-02-04T00:34:17;11.00;99.90
42141;DHT22;27809;51.864;5.646;2024-02-04T00:36:43;11.00;99.90
42141;DHT22;27809;51.864;5.646;2024-02-04T00:39:08;11.00;99.90
42141;DHT22;27809;51.864;5.646;2024-02-04T00:41:34;11.00;99.90
42141;DHT22;27809;51.864;5.646;2024-02-04T00:44:00;11.00;99.90
42141;DHT22;27809;51.864;5.646;2024-02-04T00:46:26;11.00;99.90
42141;DHT22;27809;51.864;5.646;2024-02-04T00:48:52;11.00;99.90
42141;DHT22;27809;51.864;5.646;2024-02-04T00:51:18;11.00;99.90
42141;DHT22;27809;51.864;5.646;2024-02-04T00:53:45;11.00;99.90
42141;DHT22;27809;51.864;5.646;2024-02-04T00:56:11;10.90;99.90
42141;DHT22;27809;51.864;5.646;2024-02-04T00:58:37;11.00;99.90
42141;DHT22;27809;51.864;5.646;2024-02-04T01:01:03;11.00;99.90
42141;DHT22;27809;51.864;5.646;2024-02-04T01:03:29;11.00;99.90
42141;DHT22;27809;51.864;5.646;2024-02-04T01:05:54;11.00;99.90
42141;DHT22;27809;51.864;5.646;2024-02-04T01:08:21;11.00;99.90
42141;DHT22;27809;51.864;5.646;2024-02-04T01:10:47;11.00;99.90
42141;DHT22;27809;51.864;5.646;2024-02-04T01:13:13;11.00;99.90
42141;DHT22;27809;51.864;5.646;2024-02-04T01:15:39;11.00;99.90
42141;DHT22;27809;51.864;5.646;2024-02-04T01:18:04;11.00;99.90
42141;DHT22;27809;51.864;5.646;2024-02-04T01:20:30;11.00;99.90
42141;DHT22;27809;51.864;5.646;2024-02-04T01:22:56;11.00;99.90
42141;DHT22;27809;51.864;5.646;2024-02-04T01:25:21;11.00;99.90
42141;DHT22;27809;51.864;5.646;2024-02-04T01:27:47;11.00;99.90
42141;DHT22;27809;51.864;5.646;2024-02-04T01:30:12;11.10;99.90
42141;DHT22;27809;51.864;5.646;2024-02-04T01:32:38;11.10;99.90
42141;DHT22;27809;51.864;5.646;2024-02-04T01:35:04;11.10;99.90
42141;DHT22;27809;51.864;5.646;2024-02-04T01:37:29;11.10;99.90
42141;DHT22;27809;51.864;5.646;2024-02-04T01:39:55;11.10;99.90
42141;DHT22;27809;51.864;5.646;2024-02-04T01:42:21;11.10;99.90
42141;DHT22;27809;51.864;5.646;2024-02-04T01:44:46;11.10;99.90
42141;DHT22;27809;51.864;5.646;2024-02-04T01:47:12;11.10;99.90
42141;DHT22;27809;51.864;5.646;2024-02-04T01:49:38;11.10;99.90
42141;DHT22;27809;51.864;5.646;2024-02-04T01:52:05;11.10;99.90
42141;DHT22;27809;51.864;5.646;2024-02-04T01:54:31;11.10;99.90
42141;DHT22;27809;51.864;5.646;2024-02-04T01:56:58;11.10;99.90
42141;DHT22;27809;51.864;5.646;2024-02-04T01:59:29;11.10;99.90
42141;DHT22;27809;51.864;5.646;2024-02-04T02:01:59;11.10;99.90
42141;DHT22;27809;51.864;5.646;2024-02-04T02:04:25;11.10;99.90
42141;DHT22;27809;51.864;5.646;2024-02-04T02:06:53;11.10;99.90
42141;DHT22;27809;51.864;5.646;2024-02-04T02:09:19;11.10;99.90
42141;DHT22;27809;51.864;5.646;2024-02-04T02:11:47;11.10;99.90
42141;DHT22;27809;51.864;5.646;2024-02-04T02:14:23;11.10;99.90
42141;DHT22;27809;51.864;5.646;2024-02-04T02:16:49;11.10;99.90
42141;DHT22;27809;51.864;5.646;2024-02-04T02:22:29;11.10;99.90
42141;DHT22;27809;51.864;5.646;2024-02-04T02:24:58;11.10;99.90
42141;DHT22;27809;51.864;5.646;2024-02-04T02:27:25;11.10;99.90
42141;DHT22;27809;51.864;5.646;2024-02-04T02:29:51;11.10;99.90
42141;DHT22;27809;51.864;5.646;2024-02-04T02:32:17;11.10;99.90
42141;DHT22;27809;51.864;5.646;2024-02-04T02:34:43;11.10;99.90
42141;DHT22;27809;51.864;5.646;2024-02-04T02:40:12;11.00;99.90
42141;DHT22;27809;51.864;5.646;2024-02-04T02:42:42;11.00;99.90
42141;DHT22;27809;51.864;5.646;2024-02-04T02:45:09;10.90;99.90
42141;DHT22;27809;51.864;5.646;2024-02-04T02:47:37;10.90;99.90
42141;DHT22;27809;51.864;5.646;2024-02-04T02:50:05;10.90;99.90
42141;DHT22;27809;51.864;5.646;2024-02-04T02:52:31;10.90;99.90
42141;DHT22;27809;51.864;5.646;2024-02-04T02:54:56;10.90;99.90
42141;DHT22;27809;51.864;5.646;2024-02-04T02:57:22;10.90;99.90
42141;DHT22;27809;51.864;5.646;2024-02-04T02:59:47;10.90;99.90
42141;DHT22;27809;51.864;5.646;2024-02-04T03:02:13;10.90;99.90
42141;DHT22;27809;51.864;5.646;2024-02-04T03:04:39;10.90;99.90
42141;DHT22;27809;51.864;5.646;2024-02-04T03:07:05;10.90;99.90
42141;DHT22;27809;51.864;5.646;2024-02-04T03:09:32;10.90;99.90
42141;DHT22;27809;51.864;5.646;2024-02-04T03:11:57;10.90;99.90
42141;DHT22;27809;51.864;5.646;2024-02-04T03:14:23;10.90;99.90
42141;DHT22;27809;51.864;5.646;2024-02-04T03:16:48;10.80;99.90
42141;DHT22;27809;51.864;5.646;2024-02-04T03:19:14;10.90;99.90
42141;DHT22;27809;51.864;5.646;2024-02-04T03:21:39;10.90;99.90
42141;DHT22;27809;51.864;5.646;2024-02-04T03:24:05;10.90;99.90
42141;DHT22;27809;51.864;5.646;2024-02-04T03:26:31;10.90;99.90
42141;DHT22;27809;51.864;5.646;2024-02-04T03:28:56;10.90;99.90
42141;DHT22;27809;51.864;5.646;2024-02-04T03:31:25;10.90;99.90
42141;DHT22;27809;51.864;5.646;2024-02-04T03:33:51;10.80;99.90
42141;DHT22;27809;51.864;5.646;2024-02-04T03:36:19;10.80;99.90
42141;DHT22;27809;51.864;5.646;2024-02-04T03:38:45;10.80;99.90
42141;DHT22;27809;51.864;5.646;2024-02-04T03:41:10;10.80;99.90
42141;DHT22;27809;51.864;5.646;2024-02-04T03:43:36;10.80;99.90
42141;DHT22;27809;51.864;5.646;2024-02-04T03:46:02;10.90;99.90
42141;DHT22;27809;51.864;5.646;2024-02-04T03:48:28;10.90;99.90
42141;DHT22;27809;51.864;5.646;2024-02-04T03:50:53;10.90;99.90
42141;DHT22;27809;51.864;5.646;2024-02-04T03:53:19;10.80;99.90
42141;DHT22;27809;51.864;5.646;2024-02-04T03:55:46;10.80;99.90
42141;DHT22;27809;51.864;5.646;2024-02-04T03:58:12;10.80;99.90
42141;DHT22;27809;51.864;5.646;2024-02-04T04:00:37;10.80;99.90
42141;DHT22;27809;51.864;5.646;2024-02-04T04:03:03;10.80;99.90
42141;DHT22;27809;51.864;5.646;2024-02-04T04:05:28;10.80;99.90
42141;DHT22;27809;51.864;5.646;2024-02-04T04:07:54;10.80;99.90
42141;DHT22;27809;51.864;5.646;2024-02-04T04:10:20;10.80;99.90
42141;DHT22;27809;51.864;5.646;2024-02-04T04:12:45;10.80;99.90
42141;DHT22;27809;51.864;5.646;2024-02-04T04:15:11;10.80;99.90
42141;DHT22;27809;51.864;5.646;2024-02-04T04:17:36;10.80;99.90
42141;DHT22;27809;51.864;5.646;2024-02-04T04:20:06;10.80;99.90
42141;DHT22;27809;51.864;5.646;2024-02-04T04:22:32;10.80;99.90
42141;DHT22;27809;51.864;5.646;2024-02-04T04:24:57;10.80;99.90
42141;DHT22;27809;51.864;5.646;2024-02-04T04:27:23;10.70;99.90
42141;DHT22;27809;51.864;5.646;2024-02-04T04:29:48;10.80;99.90
42141;DHT22;27809;51.864;5.646;2024-02-04T04:32:14;10.80;99.90
42141;DHT22;27809;51.864;5.646;2024-02-04T04:34:40;10.80;99.90
42141;DHT22;27809;51.864;5.646;2024-02-04T04:37:05;10.80;99.90
42141;DHT22;27809;51.864;5.646;2024-02-04T04:39:31;10.80;99.90
42141;DHT22;27809;51.864;5.646;2024-02-04T04:41:56;10.80;99.90
42141;DHT22;27809;51.864;5.646;2024-02-04T04:44:22;10.80;99.90
42141;DHT22;27809;51.864;5.646;2024-02-04T04:46:47;10.80;99.90
42141;DHT22;27809;51.864;5.646;2024-02-04T04:49:14;10.80;99.90
42141;DHT22;27809;51.864;5.646;2024-02-04T04:51:39;10.80;99.90
42141;DHT22;27809;51.864;5.646;2024-02-04T04:54:09;10.80;99.90
42141;DHT22;27809;51.864;5.646;2024-02-04T04:56:38;10.80;99.90
42141;DHT22;27809;51.864;5.646;2024-02-04T04:59:06;10.80;99.90
42141;DHT22;27809;51.864;5.646;2024-02-04T05:01:31;10.80;99.90
42141;DHT22;27809;51.864;5.646;2024-02-04T05:03:57;10.80;99.90
42141;DHT22;27809;51.864;5.646;2024-02-04T05:06:22;10.80;99.90
42141;DHT22;27809;51.864;5.646;2024-02-04T05:08:48;10.80;99.90
42141;DHT22;27809;51.864;5.646;2024-02-04T05:11:13;10.80;99.90
42141;DHT22;27809;51.864;5.646;2024-02-04T05:13:39;10.80;99.90
42141;DHT22;27809;51.864;5.646;2024-02-04T05:16:05;10.80;99.90
42141;DHT22;27809;51.864;5.646;2024-02-04T05:18:31;10.80;99.90
42141;DHT22;27809;51.864;5.646;2024-02-04T05:20:56;10.80;99.90
42141;DHT22;27809;51.864;5.646;2024-02-04T05:23:22;10.80;99.90
42141;DHT22;27809;51.864;5.646;2024-02-04T05:25:48;10.80;99.90
42141;DHT22;27809;51.864;5.646;2024-02-04T05:28:13;10.80;99.90
42141;DHT22;27809;51.864;5.646;2024-02-04T05:30:39;10.80;99.90
42141;DHT22;27809;51.864;5.646;2024-02-04T05:33:04;10.80;99.90
42141;DHT22;27809;51.864;5.646;2024-02-04T05:35:30;10.80;99.90
42141;DHT22;27809;51.864;5.646;2024-02-04T05:37:55;10.80;99.90
42141;DHT22;27809;51.864;5.646;2024-02-04T05:40:21;10.80;99.90
42141;DHT22;27809;51.864;5.646;2024-02-04T05:42:47;10.80;99.90
42141;DHT22;27809;51.864;5.646;2024-02-04T05:45:12;10.80;99.90
42141;DHT22;27809;51.864;5.646;2024-02-04T05:47:38;10.80;99.90
42141;DHT22;27809;51.864;5.646;2024-02-04T05:50:04;10.80;99.90
42141;DHT22;27809;51.864;5.646;2024-02-04T05:52:29;10.80;99.90
42141;DHT22;27809;51.864;5.646;2024-02-04T05:54:55;10.80;99.90
42141;DHT22;27809;51.864;5.646;2024-02-04T05:57:21;10.80;99.90
42141;DHT22;27809;51.864;5.646;2024-02-04T05:59:46;10.80;99.90
42141;DHT22;27809;51.864;5.646;2024-02-04T06:02:14;10.80;99.90
42141;DHT22;27809;51.864;5.646;2024-02-04T06:04:39;10.80;99.90
42141;DHT22;27809;51.864;5.646;2024-02-04T06:07:05;10.80;99.90
42141;DHT22;27809;51.864;5.646;2024-02-04T06:09:33;10.80;99.90
42141;DHT22;27809;51.864;5.646;2024-02-04T06:11:58;10.80;99.90
42141;DHT22;27809;51.864;5.646;2024-02-04T06:14:24;10.80;99.90
42141;DHT22;27809;51.864;5.646;2024-02-04T06:16:49;10.80;99.90
42141;DHT22;27809;51.864;5.646;2024-02-04T06:19:15;10.80;99.90
42141;DHT22;27809;51.864;5.646;2024-02-04T06:21:40;10.80;99.90
42141;DHT22;27809;51.864;5.646;2024-02-04T06:24:06;10.80;99.90
42141;DHT22;27809;51.864;5.646;2024-02-04T06:26:32;10.80;99.90
42141;DHT22;27809;51.864;5.646;2024-02-04T06:28:58;10.80;99.90
42141;DHT22;27809;51.864;5.646;2024-02-04T06:31:23;10.70;99.90
42141;DHT22;27809;51.864;5.646;2024-02-04T06:33:49;10.70;99.90
42141;DHT22;27809;51.864;5.646;2024-02-04T06:36:15;10.70;99.90
42141;DHT22;27809;51.864;5.646;2024-02-04T06:38:40;10.70;99.90
42141;DHT22;27809;51.864;5.646;2024-02-04T06:41:06;10.80;99.90
42141;DHT22;27809;51.864;5.646;2024-02-04T06:43:32;10.70;99.90
42141;DHT22;27809;51.864;5.646;2024-02-04T06:45:57;10.70;99.90
42141;DHT22;27809;51.864;5.646;2024-02-04T06:48:23;10.70;99.90
42141;DHT22;27809;51.864;5.646;2024-02-04T06:50:48;10.70;99.90
42141;DHT22;27809;51.864;5.646;2024-02-04T06:53:14;10.70;99.90
42141;DHT22;27809;51.864;5.646;2024-02-04T06:55:40;10.70;99.90
42141;DHT22;27809;51.864;5.646;2024-02-04T06:58:05;10.70;99.90
42141;DHT22;27809;51.864;5.646;2024-02-04T07:00:31;10.70;99.90
42141;DHT22;27809;51.864;5.646;2024-02-04T07:02:57;10.70;99.90
42141;DHT22;27809;51.864;5.646;2024-02-04T07:05:22;10.70;99.90
42141;DHT22;27809;51.864;5.646;2024-02-04T07:07:49;10.70;99.90
42141;DHT22;27809;51.864;5.646;2024-02-04T07:10:15;10.70;99.90
42141;DHT22;27809;51.864;5.646;2024-02-04T07:12:41;10.70;99.90
42141;DHT22;27809;51.864;5.646;2024-02-04T07:15:07;10.70;99.90
42141;DHT22;27809;51.864;5.646;2024-02-04T07:17:34;10.70;99.90
42141;DHT22;27809;51.864;5.646;2024-02-04T07:20:00;10.70;99.90
42141;DHT22;27809;51.864;5.646;2024-02-04T07:22:26;10.70;99.90
42141;DHT22;27809;51.864;5.646;2024-02-04T07:24:52;10.70;99.90
42141;DHT22;27809;51.864;5.646;2024-02-04T07:27:17;10.70;99.90
42141;DHT22;27809;51.864;5.646;2024-02-04T07:29:43;10.70;99.90
42141;DHT22;27809;51.864;5.646;2024-02-04T07:32:08;10.70;99.90
42141;DHT22;27809;51.864;5.646;2024-02-04T07:34:34;10.70;99.90
42141;DHT22;27809;51.864;5.646;2024-02-04T07:37:00;10.70;99.90
42141;DHT22;27809;51.864;5.646;2024-02-04T07:39:25;10.70;99.90
42141;DHT22;27809;51.864;5.646;2024-02-04T07:41:51;10.70;99.90
42141;DHT22;27809;51.864;5.646;2024-02-04T07:44:17;10.70;99.90
42141;DHT22;27809;51.864;5.646;2024-02-04T07:46:43;10.70;99.90
42141;DHT22;27809;51.864;5.646;2024-02-04T07:49:08;10.70;99.90
42141;DHT22;27809;51.864;5.646;2024-02-04T07:51:34;10.70;99.90
42141;DHT22;27809;51.864;5.646;2024-02-04T07:54:01;10.80;99.90
42141;DHT22;27809;51.864;5.646;2024-02-04T07:56:26;10.70;99.90
42141;DHT22;27809;51.864;5.646;2024-02-04T07:58:52;10.70;99.90
42141;DHT22;27809;51.864;5.646;2024-02-04T08:01:18;10.70;99.90
42141;DHT22;27809;51.864;5.646;2024-02-04T08:03:44;10.70;99.90
42141;DHT22;27809;51.864;5.646;2024-02-04T08:06:12;10.70;99.90
42141;DHT22;27809;51.864;5.646;2024-02-04T08:08:37;10.80;99.90
42141;DHT22;27809;51.864;5.646;2024-02-04T08:11:03;10.80;99.90
42141;DHT22;27809;51.864;5.646;2024-02-04T08:13:28;10.80;99.90
42141;DHT22;27809;51.864;5.646;2024-02-04T08:15:54;10.70;99.90
42141;DHT22;27809;51.864;5.646;2024-02-04T08:18:20;10.70;99.90
42141;DHT22;27809;51.864;5.646;2024-02-04T08:20:45;10.70;99.90
42141;DHT22;27809;51.864;5.646;2024-02-04T08:23:11;10.70;99.90
42141;DHT22;27809;51.864;5.646;2024-02-04T08:25:36;10.70;99.90
42141;DHT22;27809;51.864;5.646;2024-02-04T08:28:02;10.60;99.90
42141;DHT22;27809;51.864;5.646;2024-02-04T08:30:28;10.60;99.90
42141;DHT22;27809;51.864;5.646;2024-02-04T08:32:54;10.60;99.90
42141;DHT22;27809;51.864;5.646;2024-02-04T08:35:19;10.60;99.90
42141;DHT22;27809;51.864;5.646;2024-02-04T08:37:45;10.60;99.90
42141;DHT22;27809;51.864;5.646;2024-02-04T08:40:11;10.60;99.90
42141;DHT22;27809;51.864;5.646;2024-02-04T08:42:36;10.60;99.90
42141;DHT22;27809;51.864;5.646;2024-02-04T08:45:02;10.60;99.90
42141;DHT22;27809;51.864;5.646;2024-02-04T08:47:28;10.60;99.90
42141;DHT22;27809;51.864;5.646;2024-02-04T08:49:53;10.70;99.90
42141;DHT22;27809;51.864;5.646;2024-02-04T08:52:20;10.70;99.90
42141;DHT22;27809;51.864;5.646;2024-02-04T08:54:45;10.70;99.90
42141;DHT22;27809;51.864;5.646;2024-02-04T08:57:11;10.70;99.90
42141;DHT22;27809;51.864;5.646;2024-02-04T08:59:37;10.80;99.90
42141;DHT22;27809;51.864;5.646;2024-02-04T09:02:02;10.80;99.90
42141;DHT22;27809;51.864;5.646;2024-02-04T09:04:28;10.80;99.90
42141;DHT22;27809;51.864;5.646;2024-02-04T09:06:53;10.90;99.90
42141;DHT22;27809;51.864;5.646;2024-02-04T09:09:19;10.90;99.90
42141;DHT22;27809;51.864;5.646;2024-02-04T09:11:44;10.90;99.90
42141;DHT22;27809;51.864;5.646;2024-02-04T09:14:10;10.90;99.90
42141;DHT22;27809;51.864;5.646;2024-02-04T09:16:38;10.90;99.90
42141;DHT22;27809;51.864;5.646;2024-02-04T09:19:05;10.90;99.90
42141;DHT22;27809;51.864;5.646;2024-02-04T09:21:30;11.00;99.90
42141;DHT22;27809;51.864;5.646;2024-02-04T09:23:56;11.00;99.90
42141;DHT22;27809;51.864;5.646;2024-02-04T09:26:23;11.10;99.90
42141;DHT22;27809;51.864;5.646;2024-02-04T09:28:48;11.20;99.90
42141;DHT22;27809;51.864;5.646;2024-02-04T09:31:14;11.20;99.90
42141;DHT22;27809;51.864;5.646;2024-02-04T09:33:39;11.20;99.90
42141;DHT22;27809;51.864;5.646;2024-02-04T09:36:06;11.20;99.90
42141;DHT22;27809;51.864;5.646;2024-02-04T09:38:31;11.30;99.90
42141;DHT22;27809;51.864;5.646;2024-02-04T09:40:57;11.30;99.90
42141;DHT22;27809;51.864;5.646;2024-02-04T09:43:23;11.40;99.90
42141;DHT22;27809;51.864;5.646;2024-02-04T09:45:49;11.40;99.90
42141;DHT22;27809;51.864;5.646;2024-02-04T09:48:18;11.40;99.90
42141;DHT22;27809;51.864;5.646;2024-02-04T09:50:46;11.50;99.90
42141;DHT22;27809;51.864;5.646;2024-02-04T09:53:14;11.50;99.90
42141;DHT22;27809;51.864;5.646;2024-02-04T09:55:42;11.50;99.90
42141;DHT22;27809;51.864;5.646;2024-02-04T09:58:08;11.50;99.90
42141;DHT22;27809;51.864;5.646;2024-02-04T10:00:34;11.60;99.90
42141;DHT22;27809;51.864;5.646;2024-02-04T10:03:02;11.60;99.90
42141;DHT22;27809;51.864;5.646;2024-02-04T10:05:29;11.60;99.90
42141;DHT22;27809;51.864;5.646;2024-02-04T10:07:54;11.70;99.90
42141;DHT22;27809;51.864;5.646;2024-02-04T10:10:20;11.70;99.90
42141;DHT22;27809;51.864;5.646;2024-02-04T10:12:46;11.70;99.90
42141;DHT22;27809;51.864;5.646;2024-02-04T10:15:11;11.80;99.90
42141;DHT22;27809;51.864;5.646;2024-02-04T10:17:42;11.80;99.90
42141;DHT22;27809;51.864;5.646;2024-02-04T10:20:10;11.80;99.90
42141;DHT22;27809;51.864;5.646;2024-02-04T10:22:35;11.80;99.90
42141;DHT22;27809;51.864;5.646;2024-02-04T10:25:10;11.80;99.90
42141;DHT22;27809;51.864;5.646;2024-02-04T10:27:38;11.90;99.90
42141;DHT22;27809;51.864;5.646;2024-02-04T10:30:04;11.90;99.90
42141;DHT22;27809;51.864;5.646;2024-02-04T10:32:31;11.90;99.90
42141;DHT22;27809;51.864;5.646;2024-02-04T10:34:57;11.90;99.90
42141;DHT22;27809;51.864;5.646;2024-02-04T10:37:23;12.00;99.90
42141;DHT22;27809;51.864;5.646;2024-02-04T10:39:49;12.00;99.90
42141;DHT22;27809;51.864;5.646;2024-02-04T10:42:15;12.00;99.90
42141;DHT22;27809;51.864;5.646;2024-02-04T10:44:44;11.90;99.90
42141;DHT22;27809;51.864;5.646;2024-02-04T10:47:15;12.20;99.90
42141;DHT22;27809;51.864;5.646;2024-02-04T10:49:45;12.40;99.90
42141;DHT22;27809;51.864;5.646;2024-02-04T10:52:13;12.30;99.90
42141;DHT22;27809;51.864;5.646;2024-02-04T10:54:39;12.20;99.90
42141;DHT22;27809;51.864;5.646;2024-02-04T10:57:12;12.10;99.90
42141;DHT22;27809;51.864;5.646;2024-02-04T10:59:39;12.00;99.90
42141;DHT22;27809;51.864;5.646;2024-02-04T11:02:05;11.90;99.90
42141;DHT22;27809;51.864;5.646;2024-02-04T11:04:33;11.90;99.90
42141;DHT22;27809;51.864;5.646;2024-02-04T11:07:01;11.90;99.90
42141;DHT22;27809;51.864;5.646;2024-02-04T11:09:27;11.80;99.90
42141;DHT22;27809;51.864;5.646;2024-02-04T11:11:55;11.80;99.90
42141;DHT22;27809;51.864;5.646;2024-02-04T11:14:22;11.80;99.90
42141;DHT22;27809;51.864;5.646;2024-02-04T11:17:18;11.80;99.90
42141;DHT22;27809;51.864;5.646;2024-02-04T11:20:22;11.70;99.90
42141;DHT22;27809;51.864;5.646;2024-02-04T11:23:08;11.70;99.90
42141;DHT22;27809;51.864;5.646;2024-02-04T11:28:11;11.70;99.90
42141;DHT22;27809;51.864;5.646;2024-02-04T11:30:37;11.70;99.90
42141;DHT22;27809;51.864;5.646;2024-02-04T11:33:03;11.70;99.90
42141;DHT22;27809;51.864;5.646;2024-02-04T11:35:30;11.70;99.90
42141;DHT22;27809;51.864;5.646;2024-02-04T11:37:56;11.70;99.90
42141;DHT22;27809;51.864;5.646;2024-02-04T11:40:22;11.80;99.90
42141;DHT22;27809;51.864;5.646;2024-02-04T11:42:49;12.20;99.90
42141;DHT22;27809;51.864;5.646;2024-02-04T11:45:16;12.30;99.90
42141;DHT22;27809;51.864;5.646;2024-02-04T11:47:42;12.20;99.90
42141;DHT22;27809;51.864;5.646;2024-02-04T11:50:08;12.10;99.90
42141;DHT22;27809;51.864;5.646;2024-02-04T11:52:35;12.00;99.90
42141;DHT22;27809;51.864;5.646;2024-02-04T11:55:00;11.80;99.90
42141;DHT22;27809;51.864;5.646;2024-02-04T11:57:27;11.80;99.90
42141;DHT22;27809;51.864;5.646;2024-02-04T11:59:53;11.70;99.90
42141;DHT22;27809;51.864;5.646;2024-02-04T12:02:20;11.60;99.90
42141;DHT22;27809;51.864;5.646;2024-02-04T12:04:49;11.60;99.90
42141;DHT22;27809;51.864;5.646;2024-02-04T12:07:15;11.50;99.90
42141;DHT22;27809;51.864;5.646;2024-02-04T12:09:41;11.50;99.90
42141;DHT22;27809;51.864;5.646;2024-02-04T12:12:07;11.70;99.90
42141;DHT22;27809;51.864;5.646;2024-02-04T12:14:37;11.80;99.90
42141;DHT22;27809;51.864;5.646;2024-02-04T12:17:08;11.70;99.90
42141;DHT22;27809;51.864;5.646;2024-02-04T12:19:35;11.60;99.90
42141;DHT22;27809;51.864;5.646;2024-02-04T12:22:00;11.50;99.90
42141;DHT22;27809;51.864;5.646;2024-02-04T12:24:26;11.50;99.90
42141;DHT22;27809;51.864;5.646;2024-02-04T12:26:52;11.50;99.90
42141;DHT22;27809;51.864;5.646;2024-02-04T12:29:18;11.40;99.90
42141;DHT22;27809;51.864;5.646;2024-02-04T12:31:43;11.40;99.90
42141;DHT22;27809;51.864;5.646;2024-02-04T12:34:10;11.40;99.90
42141;DHT22;27809;51.864;5.646;2024-02-04T12:36:37;11.40;99.90
42141;DHT22;27809;51.864;5.646;2024-02-04T12:39:03;11.40;99.90
42141;DHT22;27809;51.864;5.646;2024-02-04T12:41:29;11.40;99.90
42141;DHT22;27809;51.864;5.646;2024-02-04T12:43:59;11.30;99.90
42141;DHT22;27809;51.864;5.646;2024-02-04T12:46:26;11.40;99.90
42141;DHT22;27809;51.864;5.646;2024-02-04T12:48:58;11.40;99.90
42141;DHT22;27809;51.864;5.646;2024-02-04T12:51:30;11.40;99.90
42141;DHT22;27809;51.864;5.646;2024-02-04T12:54:10;11.40;99.90
42141;DHT22;27809;51.864;5.646;2024-02-04T12:56:47;11.40;99.90
42141;DHT22;27809;51.864;5.646;2024-02-04T12:59:30;11.40;99.90
42141;DHT22;27809;51.864;5.646;2024-02-04T13:01:57;11.40;99.90
42141;DHT22;27809;51.864;5.646;2024-02-04T13:04:23;11.30;99.90
42141;DHT22;27809;51.864;5.646;2024-02-04T13:06:49;11.40;99.90
42141;DHT22;27809;51.864;5.646;2024-02-04T13:09:15;11.30;99.90
42141;DHT22;27809;51.864;5.646;2024-02-04T13:11:42;11.40;99.90
42141;DHT22;27809;51.864;5.646;2024-02-04T13:14:08;11.30;99.90
42141;DHT22;27809;51.864;5.646;2024-02-04T13:16:33;11.30;99.90
42141;DHT22;27809;51.864;5.646;2024-02-04T13:19:01;11.30;99.90
42141;DHT22;27809;51.864;5.646;2024-02-04T13:21:28;11.30;99.90
42141;DHT22;27809;51.864;5.646;2024-02-04T13:23:53;11.30;99.90
42141;DHT22;27809;51.864;5.646;2024-02-04T13:26:19;11.30;99.90
42141;DHT22;27809;51.864;5.646;2024-02-04T13:28:45;11.40;99.90
42141;DHT22;27809;51.864;5.646;2024-02-04T13:31:11;11.30;99.90
42141;DHT22;27809;51.864;5.646;2024-02-04T13:33:38;11.40;99.90
42141;DHT22;27809;51.864;5.646;2024-02-04T13:36:05;11.40;99.90
42141;DHT22;27809;51.864;5.646;2024-02-04T13:38:31;11.40;99.90
42141;DHT22;27809;51.864;5.646;2024-02-04T13:40:56;11.40;99.90
42141;DHT22;27809;51.864;5.646;2024-02-04T13:43:22;11.40;99.90
42141;DHT22;27809;51.864;5.646;2024-02-04T13:45:48;11.40;99.90
42141;DHT22;27809;51.864;5.646;2024-02-04T13:48:13;11.40;99.90
42141;DHT22;27809;51.864;5.646;2024-02-04T13:50:40;11.50;99.90
42141;DHT22;27809;51.864;5.646;2024-02-04T13:53:05;11.50;99.90
42141;DHT22;27809;51.864;5.646;2024-02-04T13:55:31;11.50;99.90
42141;DHT22;27809;51.864;5.646;2024-02-04T13:57:57;11.50;99.90
42141;DHT22;27809;51.864;5.646;2024-02-04T14:00:22;11.60;99.90
42141;DHT22;27809;51.864;5.646;2024-02-04T14:02:48;11.60;99.90
42141;DHT22;27809;51.864;5.646;2024-02-04T14:05:14;11.60;99.90
42141;DHT22;27809;51.864;5.646;2024-02-04T14:07:39;11.60;99.90
42141;DHT22;27809;51.864;5.646;2024-02-04T14:10:05;11.60;99.90
42141;DHT22;27809;51.864;5.646;2024-02-04T14:12:31;11.60;99.90
42141;DHT22;27809;51.864;5.646;2024-02-04T14:14:57;11.60;99.90
42141;DHT22;27809;51.864;5.646;2024-02-04T14:17:22;11.60;99.90
42141;DHT22;27809;51.864;5.646;2024-02-04T14:19:49;11.60;99.90
42141;DHT22;27809;51.864;5.646;2024-02-04T14:22:16;11.70;99.90
42141;DHT22;27809;51.864;5.646;2024-02-04T14:24:46;11.70;99.90
42141;DHT22;27809;51.864;5.646;2024-02-04T14:27:12;11.70;99.90
42141;DHT22;27809;51.864;5.646;2024-02-04T14:29:38;11.70;99.90
42141;DHT22;27809;51.864;5.646;2024-02-04T14:32:03;11.70;99.90
42141;DHT22;27809;51.864;5.646;2024-02-04T14:34:29;11.70;99.90
42141;DHT22;27809;51.864;5.646;2024-02-04T14:36:54;11.70;99.90
42141;DHT22;27809;51.864;5.646;2024-02-04T14:39:20;11.70;99.90
42141;DHT22;27809;51.864;5.646;2024-02-04T14:41:46;11.70;99.90
42141;DHT22;27809;51.864;5.646;2024-02-04T14:44:11;11.70;99.90
42141;DHT22;27809;51.864;5.646;2024-02-04T14:46:38;11.80;99.90
42141;DHT22;27809;51.864;5.646;2024-02-04T14:49:03;11.80;99.90
42141;DHT22;27809;51.864;5.646;2024-02-04T14:51:29;11.80;99.90
42141;DHT22;27809;51.864;5.646;2024-02-04T14:53:57;11.80;99.90
42141;DHT22;27809;51.864;5.646;2024-02-04T14:56:23;11.80;99.90
42141;DHT22;27809;51.864;5.646;2024-02-04T14:58:49;11.80;99.90
42141;DHT22;27809;51.864;5.646;2024-02-04T15:01:14;11.80;99.90
42141;DHT22;27809;51.864;5.646;2024-02-04T15:03:41;11.80;99.90
42141;DHT22;27809;51.864;5.646;2024-02-04T15:06:07;11.80;99.90
42141;DHT22;27809;51.864;5.646;2024-02-04T15:08:32;11.80;99.90
42141;DHT22;27809;51.864;5.646;2024-02-04T15:10:58;11.80;99.90
42141;DHT22;27809;51.864;5.646;2024-02-04T15:13:24;11.80;99.90
42141;DHT22;27809;51.864;5.646;2024-02-04T15:15:49;11.80;99.90
42141;DHT22;27809;51.864;5.646;2024-02-04T15:18:15;11.80;99.90
42141;DHT22;27809;51.864;5.646;2024-02-04T15:20:41;11.80;99.90
42141;DHT22;27809;51.864;5.646;2024-02-04T15:23:07;11.70;99.90
42141;DHT22;27809;51.864;5.646;2024-02-04T15:25:33;11.70;99.90
42141;DHT22;27809;51.864;5.646;2024-02-04T15:27:59;11.70;99.90
42141;DHT22;27809;51.864;5.646;2024-02-04T15:30:25;11.70;99.90
42141;DHT22;27809;51.864;5.646;2024-02-04T15:32:51;11.70;99.90